KGNT/GNT METAR and TAF weather

Enter ICAO airport designator
Station Type Date Time Source
KGNT METAR 2020/04/04 10:35 UTC NOAA

KGNT 041035Z AUTO 21004KT 10SM CLR 02/M05 A2999 RMK AO2 T00201055


Station Type Date Time Source
KGNT Decoded METAR 2020/04/04 10:35 UTC NOAA

GRANTS-MILAN MUNICIPAL AIRPORT , NM, United States (KGNT) 35-10N 107-54W 1987M
Apr 04, 2020 - 06:35 AM EDT / 2020.04.04 1035 UTC
Wind: from the SSW (210 degrees) at 5 MPH (4 KT):0
Visibility: 10 mile(s):0
Sky conditions: clear
Temperature: 35.6 F (2.0 C)
Dew Point: 22.1 F (-5.5 C)
Relative Humidity: 57%
Pressure (altimeter): 29.99 in. Hg (1015 hPa)
ob: KGNT 041035Z AUTO 21004KT 10SM CLR 02/M05 A2999 RMK AO2 T00201055
cycle: 10

Station Type Date Time Source
KGNT TAF UTC NOAA

Error!

Example: see airport list